Overview Statistics Trail Chart Weather Telemetry Raw packets
 

This is the latest recevied weather packets stored in our database for station/object IN3MWE-10. If no packets are shown the sender has not sent any weather packets the latest 10 day(s).

<< 15 16 17 18 19 20 21 >>
Time Temp. Humidity Pressure Rain* Wind** Luminosity Snow
1788298528 21.11° C 100% 983.5 hPa - - - -
1788297628 21.67° C 100% 983.5 hPa - - - -
1788296728 21.67° C 100% 983.6 hPa - - - -
1788295827 21.67° C 100% 983.4 hPa - - - -
1788294927 21.67° C 100% 983.2 hPa - - - -
1788294027 22.22° C 100% 983.1 hPa - - - -
1788293127 23.89° C 83% 982.7 hPa - - - -
1788292226 23.89° C 71% 982.4 hPa - - - -
1788291326 24.44° C 67% 981.9 hPa - - - -
1788290426 25° C 65% 981.8 hPa - - - -
1788289526 25° C 65% 981.6 hPa - - - -
1788288625 25° C 67% 981.4 hPa - - - -
1788287725 25.56° C 66% 981.3 hPa - - - -
1788286825 25° C 70% 981 hPa - - - -
1788285925 25.56° C 70% 980.7 hPa - - - -
1788285025 25° C 69% 980.6 hPa - - - -
1788284125 25.56° C 71% 980.3 hPa - - - -
1788283224 26.67° C 61% 980.3 hPa - - - -
1788282324 27.22° C 55% 980.2 hPa - - - -
1788281424 27.78° C 54% 980.1 hPa - - - -
1788280524 28.33° C 47% 980 hPa - - - -
1788279624 28.89° C 46% 980.1 hPa - - - -
1788278723 29.44° C 45% 979.9 hPa - - - -
1788277823 33.33° C 34% 979.7 hPa - - - -
1788276945 30.56° C 39% 979.7 hPa - - - -

* Rain since midnight (hover to see other rain measurements)
** Current wind speed in m/s (hover to see current wind gust speed)